Terminal Aerodrome Forecast
Issued by NWS

Home | Current Version | Previous Version | Text Only | Print | Product List | Glossary On
Versions: 1 2 3 4 5 6 7 8 9 10 11 12 13 14 15 16 17 18 19 20 21 22 23 24 25 26 27 28 29 30 31 32 33 34 35 36 37 38 39 40 41 42 43 44 45 46 47 48
000
FTUS46 KEKA 280545 CCA
TAFACV
TAF COR
KACV 280545Z 2806/2906 VRB03KT P6SM OVC008
     FM280900 VRB03KT 5SM BR SCT007 OVC100
     FM281400 30004KT P6SM SCT010 SCT250
     FM282000 32010G18KT P6SM SCT010 OVC030
     FM290400 35007KT P6SM BKN010=

USA.gov is the U.S. government's official web portal to all federal, state and local government web resources and services.